sensor_id;sensor_type;location;lat;lon;timestamp;pressure;altitude;pressure_sealevel;temperature;humidity
81196;BME280;70671;43.888;-79.394;2024-03-22T00:01:40;100141.31;;;-4.59;47.87
81196;BME280;70671;43.888;-79.394;2024-03-22T00:04:06;100145.41;;;-4.70;46.64
81196;BME280;70671;43.888;-79.394;2024-03-22T00:06:32;100136.63;;;-4.79;47.91
81196;BME280;70671;43.888;-79.394;2024-03-22T00:08:58;100155.25;;;-4.62;47.50
81196;BME280;70671;43.888;-79.394;2024-03-22T00:11:24;100160.31;;;-4.60;47.27
81196;BME280;70671;43.888;-79.394;2024-03-22T00:13:50;100164.53;;;-4.68;48.47
81196;BME280;70671;43.888;-79.394;2024-03-22T00:16:16;100165.81;;;-4.74;48.58
81196;BME280;70671;43.888;-79.394;2024-03-22T00:18:42;100172.25;;;-4.66;48.27
81196;BME280;70671;43.888;-79.394;2024-03-22T00:21:08;100176.47;;;-4.74;48.37
81196;BME280;70671;43.888;-79.394;2024-03-22T00:23:34;100146.84;;;-4.98;47.88
81196;BME280;70671;43.888;-79.394;2024-03-22T00:26:00;100183.72;;;-4.91;47.84
81196;BME280;70671;43.888;-79.394;2024-03-22T00:28:26;100144.47;;;-5.25;48.10
81196;BME280;70671;43.888;-79.394;2024-03-22T00:30:52;100190.94;;;-5.09;48.67
81196;BME280;70671;43.888;-79.394;2024-03-22T00:33:19;100182.75;;;-5.13;47.93
81196;BME280;70671;43.888;-79.394;2024-03-22T00:35:45;100200.50;;;-5.08;48.76
81196;BME280;70671;43.888;-79.394;2024-03-22T00:38:11;100189.81;;;-5.17;48.45
81196;BME280;70671;43.888;-79.394;2024-03-22T00:40:37;100170.03;;;-5.33;48.16
81196;BME280;70671;43.888;-79.394;2024-03-22T00:43:03;100205.34;;;-5.10;48.54
81196;BME280;70671;43.888;-79.394;2024-03-22T00:45:29;100204.09;;;-5.04;48.17
81196;BME280;70671;43.888;-79.394;2024-03-22T00:47:55;100197.22;;;-5.05;48.33
81196;BME280;70671;43.888;-79.394;2024-03-22T00:50:21;100173.66;;;-5.20;48.78
81196;BME280;70671;43.888;-79.394;2024-03-22T00:52:47;100195.94;;;-5.16;49.03
81196;BME280;70671;43.888;-79.394;2024-03-22T00:55:13;100202.34;;;-5.17;48.97
81196;BME280;70671;43.888;-79.394;2024-03-22T00:57:38;100167.06;;;-5.48;49.17
81196;BME280;70671;43.888;-79.394;2024-03-22T01:00:05;100208.16;;;-5.32;49.28
81196;BME280;70671;43.888;-79.394;2024-03-22T01:02:31;100205.00;;;-5.34;48.51
81196;BME280;70671;43.888;-79.394;2024-03-22T01:04:57;100199.53;;;-5.38;49.21
81196;BME280;70671;43.888;-79.394;2024-03-22T01:07:23;100193.56;;;-5.35;49.53
81196;BME280;70671;43.888;-79.394;2024-03-22T01:09:49;100195.63;;;-5.32;48.90
81196;BME280;70671;43.888;-79.394;2024-03-22T01:12:14;100200.28;;;-5.37;49.58
81196;BME280;70671;43.888;-79.394;2024-03-22T01:14:42;100202.66;;;-5.36;49.76
81196;BME280;70671;43.888;-79.394;2024-03-22T01:17:08;100200.28;;;-5.37;49.77
81196;BME280;70671;43.888;-79.394;2024-03-22T01:19:34;100204.97;;;-5.51;50.22
81196;BME280;70671;43.888;-79.394;2024-03-22T01:21:59;100214.16;;;-5.66;50.82
81196;BME280;70671;43.888;-79.394;2024-03-22T01:24:25;100189.97;;;-5.95;50.81
81196;BME280;70671;43.888;-79.394;2024-03-22T01:26:51;100204.16;;;-5.69;50.61
81196;BME280;70671;43.888;-79.394;2024-03-22T01:29:17;100192.97;;;-5.79;51.45
81196;BME280;70671;43.888;-79.394;2024-03-22T01:31:43;100204.00;;;-5.64;51.04
81196;BME280;70671;43.888;-79.394;2024-03-22T01:34:09;100210.38;;;-5.73;51.40
81196;BME280;70671;43.888;-79.394;2024-03-22T01:36:35;100200.47;;;-5.90;51.72
81196;BME280;70671;43.888;-79.394;2024-03-22T01:39:01;100196.69;;;-5.98;51.93
81196;BME280;70671;43.888;-79.394;2024-03-22T01:41:27;100197.78;;;-5.99;52.28
81196;BME280;70671;43.888;-79.394;2024-03-22T01:43:53;100207.94;;;-6.01;52.97
81196;BME280;70671;43.888;-79.394;2024-03-22T01:46:19;100207.66;;;-5.99;53.02
81196;BME280;70671;43.888;-79.394;2024-03-22T01:48:45;100197.56;;;-6.11;52.87
81196;BME280;70671;43.888;-79.394;2024-03-22T01:51:11;100216.41;;;-5.99;53.01
81196;BME280;70671;43.888;-79.394;2024-03-22T01:53:38;100206.03;;;-6.09;53.22
81196;BME280;70671;43.888;-79.394;2024-03-22T01:56:05;100217.84;;;-6.01;53.23
81196;BME280;70671;43.888;-79.394;2024-03-22T01:58:32;100217.66;;;-6.05;53.69
81196;BME280;70671;43.888;-79.394;2024-03-22T02:00:58;100225.16;;;-6.07;53.55
81196;BME280;70671;43.888;-79.394;2024-03-22T02:03:24;100214.03;;;-6.09;53.43
81196;BME280;70671;43.888;-79.394;2024-03-22T02:05:51;100200.38;;;-6.16;53.96
81196;BME280;70671;43.888;-79.394;2024-03-22T02:08:17;100223.59;;;-6.08;53.79
81196;BME280;70671;43.888;-79.394;2024-03-22T02:10:43;100190.44;;;-6.32;53.78
81196;BME280;70671;43.888;-79.394;2024-03-22T02:13:09;100202.28;;;-6.08;53.99
81196;BME280;70671;43.888;-79.394;2024-03-22T02:15:35;100199.16;;;-6.10;54.56
81196;BME280;70671;43.888;-79.394;2024-03-22T02:18:01;100123.00;;;-6.58;54.00
81196;BME280;70671;43.888;-79.394;2024-03-22T02:20:27;100185.75;;;-6.27;54.29
81196;BME280;70671;43.888;-79.394;2024-03-22T02:22:53;100202.25;;;-6.16;53.94
81196;BME280;70671;43.888;-79.394;2024-03-22T02:25:19;100190.00;;;-6.26;54.73
81196;BME280;70671;43.888;-79.394;2024-03-22T02:27:45;100181.38;;;-6.23;54.31
81196;BME280;70671;43.888;-79.394;2024-03-22T02:30:16;100182.13;;;-6.31;54.45
81196;BME280;70671;43.888;-79.394;2024-03-22T02:32:43;100216.34;;;-6.16;54.74
81196;BME280;70671;43.888;-79.394;2024-03-22T02:35:09;100203.16;;;-6.21;54.86
81196;BME280;70671;43.888;-79.394;2024-03-22T02:37:35;100211.34;;;-6.39;55.04
81196;BME280;70671;43.888;-79.394;2024-03-22T02:40:01;100218.69;;;-6.14;55.08
81196;BME280;70671;43.888;-79.394;2024-03-22T02:42:28;100216.53;;;-6.12;55.04
81196;BME280;70671;43.888;-79.394;2024-03-22T02:44:54;100208.84;;;-6.14;55.04
81196;BME280;70671;43.888;-79.394;2024-03-22T02:47:21;100204.66;;;-6.06;54.70
81196;BME280;70671;43.888;-79.394;2024-03-22T02:49:47;100208.84;;;-6.14;55.04
81196;BME280;70671;43.888;-79.394;2024-03-22T02:52:13;100212.91;;;-6.16;54.85
81196;BME280;70671;43.888;-79.394;2024-03-22T02:54:39;100197.50;;;-6.28;55.24
81196;BME280;70671;43.888;-79.394;2024-03-22T02:57:05;100216.34;;;-6.16;55.34
81196;BME280;70671;43.888;-79.394;2024-03-22T02:59:31;100211.03;;;-6.16;56.10
81196;BME280;70671;43.888;-79.394;2024-03-22T03:01:57;100223.84;;;-6.18;55.74
81196;BME280;70671;43.888;-79.394;2024-03-22T03:04:23;100203.41;;;-6.31;55.60
81196;BME280;70671;43.888;-79.394;2024-03-22T03:06:49;100227.59;;;-6.19;55.47
81196;BME280;70671;43.888;-79.394;2024-03-22T03:09:15;100235.72;;;-6.24;56.20
81196;BME280;70671;43.888;-79.394;2024-03-22T03:11:41;100215.03;;;-6.27;55.99
81196;BME280;70671;43.888;-79.394;2024-03-22T03:14:07;100242.59;;;-6.23;56.06
81196;BME280;70671;43.888;-79.394;2024-03-22T03:16:33;100200.16;;;-6.50;56.28
81196;BME280;70671;43.888;-79.394;2024-03-22T03:18:59;100223.16;;;-6.32;56.46
81196;BME280;70671;43.888;-79.394;2024-03-22T03:21:25;100235.53;;;-6.27;56.08
81196;BME280;70671;43.888;-79.394;2024-03-22T03:23:51;100216.13;;;-6.50;56.38
81196;BME280;70671;43.888;-79.394;2024-03-22T03:26:17;100236.16;;;-6.30;56.26
81196;BME280;70671;43.888;-79.394;2024-03-22T03:28:43;100245.69;;;-6.29;56.40
81196;BME280;70671;43.888;-79.394;2024-03-22T03:31:09;100257.28;;;-6.34;57.38
81196;BME280;70671;43.888;-79.394;2024-03-22T03:33:35;100236.81;;;-6.47;57.41
81196;BME280;70671;43.888;-79.394;2024-03-22T03:36:01;100252.72;;;-6.55;56.97
81196;BME280;70671;43.888;-79.394;2024-03-22T03:38:27;100260.53;;;-6.37;56.50
81196;BME280;70671;43.888;-79.394;2024-03-22T03:40:53;100255.19;;;-6.37;57.02
81196;BME280;70671;43.888;-79.394;2024-03-22T03:43:19;100196.78;;;-6.64;56.77
81196;BME280;70671;43.888;-79.394;2024-03-22T03:45:44;100253.50;;;-6.33;56.91
81196;BME280;70671;43.888;-79.394;2024-03-22T03:48:10;100245.28;;;-6.45;56.87
81196;BME280;70671;43.888;-79.394;2024-03-22T03:50:36;100262.84;;;-6.44;57.58
81196;BME280;70671;43.888;-79.394;2024-03-22T03:53:02;100262.84;;;-6.44;57.20
81196;BME280;70671;43.888;-79.394;2024-03-22T03:55:28;100263.91;;;-6.45;57.85
81196;BME280;70671;43.888;-79.394;2024-03-22T03:57:54;100266.75;;;-6.41;57.20
81196;BME280;70671;43.888;-79.394;2024-03-22T04:00:20;100268.75;;;-6.47;58.14
81196;BME280;70671;43.888;-79.394;2024-03-22T04:02:48;100242.44;;;-6.70;58.05
81196;BME280;70671;43.888;-79.394;2024-03-22T04:05:15;100259.72;;;-6.59;57.85
81196;BME280;70671;43.888;-79.394;2024-03-22T04:07:41;100281.81;;;-6.59;58.11
81196;BME280;70671;43.888;-79.394;2024-03-22T04:10:08;100269.56;;;-6.60;58.35
81196;BME280;70671;43.888;-79.394;2024-03-22T04:12:34;100256.91;;;-6.63;58.40
81196;BME280;70671;43.888;-79.394;2024-03-22T04:15:00;100261.00;;;-6.57;58.47
81196;BME280;70671;43.888;-79.394;2024-03-22T04:17:26;100268.09;;;-6.52;58.34
81196;BME280;70671;43.888;-79.394;2024-03-22T04:19:52;100263.06;;;-6.54;58.58
81196;BME280;70671;43.888;-79.394;2024-03-22T04:22:18;100266.81;;;-6.55;58.37
81196;BME280;70671;43.888;-79.394;2024-03-22T04:24:44;100266.44;;;-6.62;58.54
81196;BME280;70671;43.888;-79.394;2024-03-22T04:27:10;100228.59;;;-6.81;58.61
81196;BME280;70671;43.888;-79.394;2024-03-22T04:29:36;100246.75;;;-6.61;58.58
81196;BME280;70671;43.888;-79.394;2024-03-22T04:32:02;100260.22;;;-6.57;58.70
81196;BME280;70671;43.888;-79.394;2024-03-22T04:34:28;100259.66;;;-6.68;58.69
81196;BME280;70671;43.888;-79.394;2024-03-22T04:36:54;100236.34;;;-6.71;58.61
81196;BME280;70671;43.888;-79.394;2024-03-22T04:39:21;100263.34;;;-6.55;58.43
81196;BME280;70671;43.888;-79.394;2024-03-22T04:41:47;100253.50;;;-6.55;58.64
81196;BME280;70671;43.888;-79.394;2024-03-22T04:44:13;100260.28;;;-6.49;58.52
81196;BME280;70671;43.888;-79.394;2024-03-22T04:46:39;100257.31;;;-6.47;58.25
81196;BME280;70671;43.888;-79.394;2024-03-22T04:49:05;100254.97;;;-6.49;58.33
81196;BME280;70671;43.888;-79.394;2024-03-22T04:51:31;100256.34;;;-6.51;58.41
81196;BME280;70671;43.888;-79.394;2024-03-22T04:53:57;100247.31;;;-6.64;58.95
81196;BME280;70671;43.888;-79.394;2024-03-22T04:56:24;100258.69;;;-6.50;58.56
81196;BME280;70671;43.888;-79.394;2024-03-22T04:58:50;100264.03;;;-6.50;58.72
81196;BME280;70671;43.888;-79.394;2024-03-22T05:01:16;100264.75;;;-6.58;58.99
81196;BME280;70671;43.888;-79.394;2024-03-22T05:03:42;100277.03;;;-6.48;59.06
81196;BME280;70671;43.888;-79.394;2024-03-22T05:06:09;100290.75;;;-6.55;58.90
81196;BME280;70671;43.888;-79.394;2024-03-22T05:08:35;100253.13;;;-6.84;59.60
81196;BME280;70671;43.888;-79.394;2024-03-22T05:11:01;100296.78;;;-6.63;59.98
81196;BME280;70671;43.888;-79.394;2024-03-22T05:13:26;100278.91;;;-6.71;59.81
81196;BME280;70671;43.888;-79.394;2024-03-22T05:15:53;100286.75;;;-6.66;59.91
81196;BME280;70671;43.888;-79.394;2024-03-22T05:18:19;100277.31;;;-6.72;59.60
81196;BME280;70671;43.888;-79.394;2024-03-22T05:20:44;100295.69;;;-6.62;59.72
81196;BME280;70671;43.888;-79.394;2024-03-22T05:23:10;100283.59;;;-6.68;60.12
81196;BME280;70671;43.888;-79.394;2024-03-22T05:25:36;100293.25;;;-6.72;60.36
81196;BME280;70671;43.888;-79.394;2024-03-22T05:28:02;100274.56;;;-6.81;60.62
81196;BME280;70671;43.888;-79.394;2024-03-22T05:30:28;100281.28;;;-6.83;60.43
81196;BME280;70671;43.888;-79.394;2024-03-22T05:32:54;100289.56;;;-6.85;60.92
81196;BME280;70671;43.888;-79.394;2024-03-22T05:35:20;100305.41;;;-6.80;60.83
81196;BME280;70671;43.888;-79.394;2024-03-22T05:37:46;100302.81;;;-6.71;60.71
81196;BME280;70671;43.888;-79.394;2024-03-22T05:40:13;100309.63;;;-6.79;61.33
81196;BME280;70671;43.888;-79.394;2024-03-22T05:42:39;100287.31;;;-6.91;61.53
81196;BME280;70671;43.888;-79.394;2024-03-22T05:45:05;100309.63;;;-6.79;61.33
81196;BME280;70671;43.888;-79.394;2024-03-22T05:47:31;100311.13;;;-6.86;61.21
81196;BME280;70671;43.888;-79.394;2024-03-22T05:49:59;100320.28;;;-6.92;61.97
81196;BME280;70671;43.888;-79.394;2024-03-22T05:52:25;100270.53;;;-7.27;62.18
81196;BME280;70671;43.888;-79.394;2024-03-22T05:54:51;100309.78;;;-6.97;62.28
81196;BME280;70671;43.888;-79.394;2024-03-22T05:57:17;100303.75;;;-6.89;62.27
81196;BME280;70671;43.888;-79.394;2024-03-22T05:59:43;100281.78;;;-6.95;61.76
81196;BME280;70671;43.888;-79.394;2024-03-22T06:02:09;100310.00;;;-6.72;61.42
81196;BME280;70671;43.888;-79.394;2024-03-22T06:04:35;100313.38;;;-6.80;62.31
81196;BME280;70671;43.888;-79.394;2024-03-22T06:07:01;100305.81;;;-6.86;62.33
81196;BME280;70671;43.888;-79.394;2024-03-22T06:09:30;100313.78;;;-6.86;62.74
81196;BME280;70671;43.888;-79.394;2024-03-22T06:12:17;100321.66;;;-6.81;62.76
81196;BME280;70671;43.888;-79.394;2024-03-22T06:14:44;100325.63;;;-6.92;63.10
81196;BME280;70671;43.888;-79.394;2024-03-22T06:17:10;100323.97;;;-7.02;63.08
81196;BME280;70671;43.888;-79.394;2024-03-22T06:19:38;100339.81;;;-7.10;63.69
81196;BME280;70671;43.888;-79.394;2024-03-22T06:22:04;100338.22;;;-7.11;63.61
81196;BME280;70671;43.888;-79.394;2024-03-22T06:24:30;100317.38;;;-7.31;64.27
81196;BME280;70671;43.888;-79.394;2024-03-22T06:26:56;100335.88;;;-7.26;64.13
81196;BME280;70671;43.888;-79.394;2024-03-22T06:29:22;100348.47;;;-7.18;64.19
81196;BME280;70671;43.888;-79.394;2024-03-22T06:31:48;100330.19;;;-7.20;63.76
81196;BME280;70671;43.888;-79.394;2024-03-22T06:34:15;100343.56;;;-7.25;64.25
81196;BME280;70671;43.888;-79.394;2024-03-22T06:36:41;100340.78;;;-7.33;64.66
81196;BME280;70671;43.888;-79.394;2024-03-22T06:39:08;100343.38;;;-7.28;64.40
81196;BME280;70671;43.888;-79.394;2024-03-22T06:41:35;100325.84;;;-7.29;64.80
81196;BME280;70671;43.888;-79.394;2024-03-22T06:44:01;100322.09;;;-7.28;64.71
81196;BME280;70671;43.888;-79.394;2024-03-22T06:46:28;100316.59;;;-7.32;64.18
81196;BME280;70671;43.888;-79.394;2024-03-22T06:48:54;100326.63;;;-7.42;65.75
81196;BME280;70671;43.888;-79.394;2024-03-22T06:51:20;100324.84;;;-7.47;66.16
81196;BME280;70671;43.888;-79.394;2024-03-22T06:53:46;100291.50;;;-7.67;66.46
81196;BME280;70671;43.888;-79.394;2024-03-22T06:56:14;100301.63;;;-7.55;65.90
81196;BME280;70671;43.888;-79.394;2024-03-22T06:58:40;100300.75;;;-7.50;65.38
81196;BME280;70671;43.888;-79.394;2024-03-22T07:01:06;100294.47;;;-7.54;65.83
81196;BME280;70671;43.888;-79.394;2024-03-22T07:03:32;100297.69;;;-7.58;66.03
81196;BME280;70671;43.888;-79.394;2024-03-22T07:05:59;100307.25;;;-7.57;65.81
81196;BME280;70671;43.888;-79.394;2024-03-22T07:08:26;100292.97;;;-7.61;66.06
81196;BME280;70671;43.888;-79.394;2024-03-22T07:10:52;100291.50;;;-7.67;66.19
81196;BME280;70671;43.888;-79.394;2024-03-22T07:13:21;100292.50;;;-7.63;65.73
81196;BME280;70671;43.888;-79.394;2024-03-22T07:15:47;100258.94;;;-7.86;66.09
81196;BME280;70671;43.888;-79.394;2024-03-22T07:18:14;100286.56;;;-7.60;66.31
81196;BME280;70671;43.888;-79.394;2024-03-22T07:20:41;100282.25;;;-7.69;66.54
81196;BME280;70671;43.888;-79.394;2024-03-22T07:23:07;100295.03;;;-7.71;66.96
81196;BME280;70671;43.888;-79.394;2024-03-22T07:25:34;100279.00;;;-7.80;67.45
81196;BME280;70671;43.888;-79.394;2024-03-22T07:28:00;100291.16;;;-7.79;68.38
81196;BME280;70671;43.888;-79.394;2024-03-22T07:30:26;100285.53;;;-7.91;68.28
81196;BME280;70671;43.888;-79.394;2024-03-22T07:32:52;100283.88;;;-8.00;68.43
81196;BME280;70671;43.888;-79.394;2024-03-22T07:35:18;100294.97;;;-7.98;68.71
81196;BME280;70671;43.888;-79.394;2024-03-22T07:37:44;100282.31;;;-8.01;68.84
81196;BME280;70671;43.888;-79.394;2024-03-22T07:40:10;100282.09;;;-8.05;68.78
81196;BME280;70671;43.888;-79.394;2024-03-22T07:42:36;100278.25;;;-8.12;68.53
81196;BME280;70671;43.888;-79.394;2024-03-22T07:45:02;100246.19;;;-8.29;68.79
81196;BME280;70671;43.888;-79.394;2024-03-22T07:47:29;100249.22;;;-8.22;69.03
81196;BME280;70671;43.888;-79.394;2024-03-22T07:49:55;100261.63;;;-8.18;69.83
81196;BME280;70671;43.888;-79.394;2024-03-22T07:52:21;100256.81;;;-8.16;70.73
81196;BME280;70671;43.888;-79.394;2024-03-22T07:54:47;100271.25;;;-8.22;71.31
81196;BME280;70671;43.888;-79.394;2024-03-22T07:57:13;100262.38;;;-8.17;70.62
81196;BME280;70671;43.888;-79.394;2024-03-22T07:59:39;100240.69;;;-8.33;70.85
81196;BME280;70671;43.888;-79.394;2024-03-22T08:02:05;100261.81;;;-8.28;72.66
81196;BME280;70671;43.888;-79.394;2024-03-22T08:04:31;100267.81;;;-8.36;73.37
81196;BME280;70671;43.888;-79.394;2024-03-22T08:06:57;100269.44;;;-8.40;73.95
81196;BME280;70671;43.888;-79.394;2024-03-22T08:09:23;100268.66;;;-8.40;72.88
81196;BME280;70671;43.888;-79.394;2024-03-22T08:11:49;100247.81;;;-8.47;72.06
81196;BME280;70671;43.888;-79.394;2024-03-22T08:14:15;100263.97;;;-8.30;71.98
81196;BME280;70671;43.888;-79.394;2024-03-22T08:16:42;100264.56;;;-8.33;71.72
81196;BME280;70671;43.888;-79.394;2024-03-22T08:19:08;100250.84;;;-8.40;71.84
81196;BME280;70671;43.888;-79.394;2024-03-22T08:21:34;100263.97;;;-8.30;71.77
81196;BME280;70671;43.888;-79.394;2024-03-22T08:24:00;100274.59;;;-8.30;71.99
81196;BME280;70671;43.888;-79.394;2024-03-22T08:26:26;100267.50;;;-8.34;71.94
81196;BME280;70671;43.888;-79.394;2024-03-22T08:28:52;100274.38;;;-8.33;71.79
81196;BME280;70671;43.888;-79.394;2024-03-22T08:31:18;100282.91;;;-8.36;71.94
81196;BME280;70671;43.888;-79.394;2024-03-22T08:33:47;100281.63;;;-8.39;71.69
81196;BME280;70671;43.888;-79.394;2024-03-22T08:36:13;100271.09;;;-8.44;71.88
81196;BME280;70671;43.888;-79.394;2024-03-22T08:38:39;100284.44;;;-8.49;72.31
81196;BME280;70671;43.888;-79.394;2024-03-22T08:41:04;100274.91;;;-8.50;72.35
81196;BME280;70671;43.888;-79.394;2024-03-22T08:43:30;100240.03;;;-8.76;71.68
81196;BME280;70671;43.888;-79.394;2024-03-22T08:45:56;100276.94;;;-8.61;72.33
81196;BME280;70671;43.888;-79.394;2024-03-22T08:48:23;100276.84;;;-8.74;73.92
81196;BME280;70671;43.888;-79.394;2024-03-22T08:50:49;100264.69;;;-8.75;73.99
81196;BME280;70671;43.888;-79.394;2024-03-22T08:53:15;100293.13;;;-8.62;74.13
81196;BME280;70671;43.888;-79.394;2024-03-22T08:55:46;100275.34;;;-8.62;74.78
81196;BME280;70671;43.888;-79.394;2024-03-22T08:58:13;100256.25;;;-8.77;74.86
81196;BME280;70671;43.888;-79.394;2024-03-22T09:00:41;100287.88;;;-8.49;73.92
81196;BME280;70671;43.888;-79.394;2024-03-22T09:03:07;100284.56;;;-8.40;73.15
81196;BME280;70671;43.888;-79.394;2024-03-22T09:05:33;100272.75;;;-8.48;73.63
81196;BME280;70671;43.888;-79.394;2024-03-22T09:08:00;100274.00;;;-8.59;74.84
81196;BME280;70671;43.888;-79.394;2024-03-22T09:10:26;100277.13;;;-8.38;74.43
81196;BME280;70671;43.888;-79.394;2024-03-22T09:12:52;100280.91;;;-8.26;74.43
81196;BME280;70671;43.888;-79.394;2024-03-22T09:15:18;100298.88;;;-8.09;74.00
81196;BME280;70671;43.888;-79.394;2024-03-22T09:17:44;100295.84;;;-8.03;73.82
81196;BME280;70671;43.888;-79.394;2024-03-22T09:20:10;100283.50;;;-7.94;73.70
81196;BME280;70671;43.888;-79.394;2024-03-22T09:22:36;100266.78;;;-7.81;73.79
81196;BME280;70671;43.888;-79.394;2024-03-22T09:25:04;100276.75;;;-7.73;73.53
81196;BME280;70671;43.888;-79.394;2024-03-22T09:27:31;100279.47;;;-7.64;74.02
81196;BME280;70671;43.888;-79.394;2024-03-22T09:29:58;100263.97;;;-7.57;73.70
81196;BME280;70671;43.888;-79.394;2024-03-22T09:32:24;100266.28;;;-7.42;73.02
81196;BME280;70671;43.888;-79.394;2024-03-22T09:34:52;100259.91;;;-7.41;72.89
81196;BME280;70671;43.888;-79.394;2024-03-22T09:37:18;100275.44;;;-7.21;72.49
81196;BME280;70671;43.888;-79.394;2024-03-22T09:39:44;100265.38;;;-7.10;71.74
81196;BME280;70671;43.888;-79.394;2024-03-22T09:42:17;100264.50;;;-7.06;71.29
81196;BME280;70671;43.888;-79.394;2024-03-22T09:44:48;100243.81;;;-6.95;71.17
81196;BME280;70671;43.888;-79.394;2024-03-22T09:47:17;100237.28;;;-6.89;70.60
81196;BME280;70671;43.888;-79.394;2024-03-22T09:49:46;100231.25;;;-6.81;70.04
81196;BME280;70671;43.888;-79.394;2024-03-22T09:52:14;100221.81;;;-6.87;69.93
81196;BME280;70671;43.888;-79.394;2024-03-22T09:54:41;100240.31;;;-6.82;70.89
81196;BME280;70671;43.888;-79.394;2024-03-22T09:57:17;100200.31;;;-6.99;70.98
81196;BME280;70671;43.888;-79.394;2024-03-22T09:59:46;100245.03;;;-6.79;71.12
81196;BME280;70671;43.888;-79.394;2024-03-22T10:02:13;100250.13;;;-6.69;70.17
81196;BME280;70671;43.888;-79.394;2024-03-22T10:04:40;100249.50;;;-6.66;69.73
81196;BME280;70671;43.888;-79.394;2024-03-22T10:07:06;100262.69;;;-6.61;68.69
81196;BME280;70671;43.888;-79.394;2024-03-22T10:09:34;100266.38;;;-6.70;69.33
81196;BME280;70671;43.888;-79.394;2024-03-22T10:12:00;100261.34;;;-6.72;69.18
81196;BME280;70671;43.888;-79.394;2024-03-22T10:14:26;100267.53;;;-6.63;69.17
81196;BME280;70671;43.888;-79.394;2024-03-22T10:16:53;100254.81;;;-6.66;69.55
81196;BME280;70671;43.888;-79.394;2024-03-22T10:19:22;100237.31;;;-6.67;69.32
81196;BME280;70671;43.888;-79.394;2024-03-22T10:22:04;100250.72;;;-6.50;68.70
81196;BME280;70671;43.888;-79.394;2024-03-22T10:24:33;100263.91;;;-6.45;68.38
81196;BME280;70671;43.888;-79.394;2024-03-22T10:26:59;100288.25;;;-6.38;68.32
81196;BME280;70671;43.888;-79.394;2024-03-22T10:29:26;100283.34;;;-6.44;67.76
81196;BME280;70671;43.888;-79.394;2024-03-22T10:31:52;100297.66;;;-6.32;67.90
81196;BME280;70671;43.888;-79.394;2024-03-22T10:34:22;100290.41;;;-6.40;67.86
81196;BME280;70671;43.888;-79.394;2024-03-22T10:36:49;100287.63;;;-6.35;67.94
81196;BME280;70671;43.888;-79.394;2024-03-22T10:39:19;100284.38;;;-6.32;68.57
81196;BME280;70671;43.888;-79.394;2024-03-22T10:41:48;100272.63;;;-6.31;68.79
81196;BME280;70671;43.888;-79.394;2024-03-22T10:44:15;100278.78;;;-6.22;68.54
81196;BME280;70671;43.888;-79.394;2024-03-22T10:46:48;100274.13;;;-6.16;68.55
81196;BME280;70671;43.888;-79.394;2024-03-22T10:49:18;100274.66;;;-6.06;68.05
81196;BME280;70671;43.888;-79.394;2024-03-22T10:51:54;100254.59;;;-6.12;68.14
81196;BME280;70671;43.888;-79.394;2024-03-22T10:54:26;100267.16;;;-6.04;68.21
81196;BME280;70671;43.888;-79.394;2024-03-22T10:56:53;100244.53;;;-6.15;68.34
81196;BME280;70671;43.888;-79.394;2024-03-22T10:59:23;100270.63;;;-5.95;67.78
81196;BME280;70671;43.888;-79.394;2024-03-22T11:01:50;100274.25;;;-5.99;67.04
81196;BME280;70671;43.888;-79.394;2024-03-22T11:04:22;100271.25;;;-5.98;67.41
81196;BME280;70671;43.888;-79.394;2024-03-22T11:06:52;100273.34;;;-5.86;67.51
81196;BME280;70671;43.888;-79.394;2024-03-22T11:09:22;100278.28;;;-6.02;67.32
81196;BME280;70671;43.888;-79.394;2024-03-22T11:11:49;100276.22;;;-6.05;66.87
81196;BME280;70671;43.888;-79.394;2024-03-22T11:14:17;100256.69;;;-6.00;66.48
81196;BME280;70671;43.888;-79.394;2024-03-22T11:16:46;100273.69;;;-6.10;67.26
81196;BME280;70671;43.888;-79.394;2024-03-22T11:19:13;100258.31;;;-6.13;67.47
81196;BME280;70671;43.888;-79.394;2024-03-22T11:21:39;100253.56;;;-5.94;67.36
81196;BME280;70671;43.888;-79.394;2024-03-22T11:24:05;100263.19;;;-5.75;67.18
81196;BME280;70671;43.888;-79.394;2024-03-22T11:26:32;100298.03;;;-5.63;67.04
81196;BME280;70671;43.888;-79.394;2024-03-22T11:28:58;100299.25;;;-5.69;67.01
81196;BME280;70671;43.888;-79.394;2024-03-22T11:31:24;100288.91;;;-5.71;67.14
81196;BME280;70671;43.888;-79.394;2024-03-22T11:33:53;100291.69;;;-5.76;67.23
81196;BME280;70671;43.888;-79.394;2024-03-22T11:36:19;100272.06;;;-5.89;67.17
81196;BME280;70671;43.888;-79.394;2024-03-22T11:38:46;100288.47;;;-5.64;66.73
81196;BME280;70671;43.888;-79.394;2024-03-22T11:41:24;100296.00;;;-5.58;67.20
81196;BME280;70671;43.888;-79.394;2024-03-22T11:43:52;100293.69;;;-5.51;67.31
81196;BME280;70671;43.888;-79.394;2024-03-22T11:46:18;100286.03;;;-5.52;66.48
81196;BME280;70671;43.888;-79.394;2024-03-22T11:48:51;100286.25;;;-5.32;66.66
81196;BME280;70671;43.888;-79.394;2024-03-22T11:51:19;100278.56;;;-5.25;66.85
81196;BME280;70671;43.888;-79.394;2024-03-22T11:53:51;100271.84;;;-5.22;67.22
81196;BME280;70671;43.888;-79.394;2024-03-22T11:56:20;100267.81;;;-5.11;67.08
81196;BME280;70671;43.888;-79.394;2024-03-22T11:58:47;100263.72;;;-5.00;67.07
81196;BME280;70671;43.888;-79.394;2024-03-22T12:01:16;100262.47;;;-4.94;66.83
81196;BME280;70671;43.888;-79.394;2024-03-22T12:03:46;100264.38;;;-5.03;65.94
81196;BME280;70671;43.888;-79.394;2024-03-22T12:06:13;100281.13;;;-5.11;65.79
81196;BME280;70671;43.888;-79.394;2024-03-22T12:08:40;100257.59;;;-5.18;65.51
81196;BME280;70671;43.888;-79.394;2024-03-22T12:11:10;100278.03;;;-4.87;65.89
81196;BME280;70671;43.888;-79.394;2024-03-22T12:13:38;100262.81;;;-4.78;64.91
81196;BME280;70671;43.888;-79.394;2024-03-22T12:16:05;100269.72;;;-4.77;65.18
81196;BME280;70671;43.888;-79.394;2024-03-22T12:18:31;100286.50;;;-4.51;63.69
81196;BME280;70671;43.888;-79.394;2024-03-22T12:20:57;100286.19;;;-4.41;64.43
81196;BME280;70671;43.888;-79.394;2024-03-22T12:23:23;100292.00;;;-4.31;64.36
81196;BME280;70671;43.888;-79.394;2024-03-22T12:25:50;100286.00;;;-4.10;64.18
81196;BME280;70671;43.888;-79.394;2024-03-22T12:28:17;100264.94;;;-4.03;63.00